Time;durP1;ratioP1;P1;durP2;ratioP2;P2;SDS_P1;SDS_P2;PMS_P1;PMS_P2;Temp;Humidity;BMP_temperature;BMP_pressure;BME280_temperature;BME280_humidity;BME280_pressure;Samples;Min_cycle;Max_cycle;Signal;HPM_P1;HPM_P2
2023/01/13 00:02:16;;;;;;;3.43;1.93;;;;;;;;;;5092935;28;20043;-63
2023/01/13 00:04:43;;;;;;;3.80;2.03;;;;;;;;;;5093179;28;20497;-64
2023/01/13 00:07:09;;;;;;;4.07;2.20;;;;;;;;;;5089115;28;20016;-63
2023/01/13 00:09:36;;;;;;;6.60;2.37;;;;;;;;;;5087292;28;20038;-64
2023/01/13 00:12:03;;;;;;;3.67;1.57;;;;;;;;;;5086774;28;20043;-64
2023/01/13 00:14:32;;;;;;;2.63;1.70;;;;;;;;;;5087202;28;20094;-63
2023/01/13 00:16:59;;;;;;;4.90;2.23;;;;;;;;;;5090476;28;20030;-64
2023/01/13 00:19:26;;;;;;;3.50;1.57;;;;;;;;;;5092106;28;20442;-63
2023/01/13 00:21:52;;;;;;;4.20;2.30;;;;;;;;;;5092249;28;20063;-64
2023/01/13 00:24:19;;;;;;;4.17;2.17;;;;;;;;;;5092829;28;20020;-63
2023/01/13 00:26:46;;;;;;;7.27;2.73;;;;;;;;;;5092431;28;20027;-63
2023/01/13 00:29:13;;;;;;;15.23;2.50;;;;;;;;;;5088926;28;20539;-63
2023/01/13 00:31:39;;;;;;;3.07;2.33;;;;;;;;;;5086852;28;20012;-63
2023/01/13 00:34:06;;;;;;;5.43;2.63;;;;;;;;;;5086854;28;20032;-63
2023/01/13 00:36:33;;;;;;;3.20;2.07;;;;;;;;;;5086670;28;20028;-63
2023/01/13 00:38:59;;;;;;;1.87;1.57;;;;;;;;;;5089414;28;20043;-63
2023/01/13 00:41:26;;;;;;;15.83;2.13;;;;;;;;;;5092616;28;20039;-63
2023/01/13 00:43:53;;;;;;;2.67;2.00;;;;;;;;;;5092257;28;20039;-63
2023/01/13 00:46:21;;;;;;;3.10;2.10;;;;;;;;;;5092188;28;20039;-62
2023/01/13 00:48:48;;;;;;;2.43;1.63;;;;;;;;;;5092283;28;20356;-63
2023/01/13 00:51:19;;;;;;;2.67;1.57;;;;;;;;;;5089408;28;20036;-63
2023/01/13 00:53:47;;;;;;;2.70;1.93;;;;;;;;;;5086786;28;20031;-63
2023/01/13 00:56:15;;;;;;;11.17;2.20;;;;;;;;;;5086505;28;20039;-63
2023/01/13 00:58:43;;;;;;;7.00;2.60;;;;;;;;;;5086844;28;20063;-63
2023/01/13 01:01:11;;;;;;;3.07;1.80;;;;;;;;;;5088770;28;20048;-63
2023/01/13 01:03:38;;;;;;;4.63;2.27;;;;;;;;;;5092107;28;20032;-63
2023/01/13 01:06:06;;;;;;;4.67;2.60;;;;;;;;;;5091786;28;20107;-63
2023/01/13 01:08:33;;;;;;;5.23;2.47;;;;;;;;;;5092219;28;20028;-63
2023/01/13 01:11:04;;;;;;;12.20;2.07;;;;;;;;;;5092207;28;20016;-62
2023/01/13 01:13:31;;;;;;;10.87;2.40;;;;;;;;;;5089514;28;20390;-63
2023/01/13 01:15:58;;;;;;;6.57;2.33;;;;;;;;;;5086353;28;20386;-63
2023/01/13 01:18:25;;;;;;;4.33;1.90;;;;;;;;;;5086576;28;20051;-62
2023/01/13 01:20:52;;;;;;;5.20;2.10;;;;;;;;;;5086217;28;20032;-63
2023/01/13 01:23:18;;;;;;;4.30;2.37;;;;;;;;;;5087854;28;20035;-62
2023/01/13 01:25:45;;;;;;;5.77;2.77;;;;;;;;;;5091795;28;20032;-62
2023/01/13 01:28:12;;;;;;;4.10;2.23;;;;;;;;;;5092245;28;20034;-63
2023/01/13 01:30:39;;;;;;;5.23;2.27;;;;;;;;;;5092869;28;20024;-62
2023/01/13 01:33:05;;;;;;;3.00;1.90;;;;;;;;;;5096132;28;20036;-62
2023/01/13 01:35:32;;;;;;;4.30;2.20;;;;;;;;;;5094024;28;20020;-63
2023/01/13 01:37:59;;;;;;;3.50;2.17;;;;;;;;;;5089783;28;20441;-62
2023/01/13 01:40:26;;;;;;;4.03;2.33;;;;;;;;;;5090317;28;20379;-62
2023/01/13 01:45:38;;;;;;;2.58;1.92;;;;;;;;;;5091589;28;20105;-62
2023/01/13 01:48:06;;;;;;;3.93;2.33;;;;;;;;;;5095689;28;20059;-62
2023/01/13 02:15:11;;;;;;;5.90;1.97;;;;;;;;;;5095199;27;2145981;-62
2023/01/13 02:17:41;;;;;;;3.17;1.90;;;;;;;;;;5124882;28;20100;-62
2023/01/13 02:20:26;;;;;;;5.63;2.53;;;;;;;;;;5124358;28;20103;-62
2023/01/13 02:37:31;;;;;;;2.50;1.70;;;;;;;;;;5062401;28;20411;-61
2023/01/13 02:40:20;;;;;;;1.77;1.27;;;;;;;;;;5064061;28;20056;-61
2023/01/13 02:45:53;;;;;;;4.17;1.83;;;;;;;;;;5054746;28;20040;-61
2023/01/13 02:48:44;;;;;;;2.20;1.57;;;;;;;;;;5324998;22;20414;-64
2023/01/13 02:51:16;;;;;;;21.10;2.27;;;;;;;;;;5054177;28;20463;-64
2023/01/13 02:53:53;;;;;;;3.80;1.47;;;;;;;;;;5049364;28;20465;-64
2023/01/13 02:56:21;;;;;;;3.00;1.67;;;;;;;;;;5050216;28;20041;-62
2023/01/13 02:58:48;;;;;;;11.13;2.03;;;;;;;;;;5049247;28;20026;-61
2023/01/13 03:01:15;;;;;;;2.10;1.67;;;;;;;;;;5045106;28;20079;-62
2023/01/13 03:03:43;;;;;;;8.17;1.83;;;;;;;;;;5043346;28;20387;-62
2023/01/13 03:06:33;;;;;;;2.93;1.70;;;;;;;;;;5043678;28;20041;-62
2023/01/13 03:09:16;;;;;;;5.50;2.60;;;;;;;;;;5036493;28;20540;-61
2023/01/13 03:11:50;;;;;;;3.87;2.30;;;;;;;;;;5048067;28;20555;-61
2023/01/13 03:14:23;;;;;;;1.77;1.42;;;;;;;;;;5054637;28;20075;-61
2023/01/13 03:17:05;;;;;;;3.67;2.33;;;;;;;;;;5068741;28;20118;-62
2023/01/13 03:19:37;;;;;;;2.10;1.43;;;;;;;;;;5068745;28;20470;-62
2023/01/13 03:22:26;;;;;;;2.30;1.73;;;;;;;;;;5067849;28;20530;-62
2023/01/13 03:25:02;;;;;;;2.40;1.70;;;;;;;;;;5054778;28;20030;-62
2023/01/13 03:27:50;;;;;;;4.47;2.20;;;;;;;;;;5043178;28;20100;-62
2023/01/13 03:30:26;;;;;;;5.50;1.83;;;;;;;;;;5043193;28;20029;-61
2023/01/13 03:32:55;;;;;;;3.67;2.07;;;;;;;;;;5046326;28;20029;-61
2023/01/13 03:35:22;;;;;;;2.63;1.70;;;;;;;;;;5048413;28;20044;-62
2023/01/13 03:37:56;;;;;;;3.00;2.17;;;;;;;;;;5048482;28;20026;-61
2023/01/13 03:40:32;;;;;;;3.08;1.80;;;;;;;;;;5048474;28;20132;-61
2023/01/13 03:45:57;;;;;;;4.10;2.33;;;;;;;;;;5063714;28;20040;-61
2023/01/13 03:48:26;;;;;;;3.37;1.97;;;;;;;;;;5051796;28;20389;-61
2023/01/13 03:50:55;;;;;;;4.27;1.93;;;;;;;;;;5049104;28;20112;-61
2023/01/13 03:53:30;;;;;;;3.30;2.03;;;;;;;;;;5042341;28;20021;-61
2023/01/13 03:56:02;;;;;;;2.38;1.83;;;;;;;;;;5035359;28;20597;-61
2023/01/13 03:58:32;;;;;;;3.73;2.37;;;;;;;;;;5040887;28;20121;-61
2023/01/13 04:01:01;;;;;;;13.53;2.90;;;;;;;;;;5040193;28;20135;-61
2023/01/13 04:03:54;;;;;;;3.43;1.73;;;;;;;;;;5054358;28;20055;-64
2023/01/13 04:06:39;;;;;;;21.10;2.47;;;;;;;;;;5052718;28;20064;-62
2023/01/13 04:09:30;;;;;;;3.33;2.65;;;;;;;;;;5049045;28;20108;-61
2023/01/13 04:12:16;;;;;;;6.23;3.20;;;;;;;;;;5047133;28;20025;-61
2023/01/13 04:14:43;;;;;;;5.40;2.30;;;;;;;;;;5046856;28;20080;-62
2023/01/13 04:17:10;;;;;;;14.87;3.67;;;;;;;;;;5050517;28;20487;-61
2023/01/13 04:19:37;;;;;;;5.00;3.10;;;;;;;;;;5054440;28;20032;-62
2023/01/13 04:22:03;;;;;;;5.10;3.57;;;;;;;;;;5040829;28;20041;-61
2023/01/13 04:24:30;;;;;;;4.43;3.23;;;;;;;;;;5034413;28;20380;-61
2023/01/13 04:26:57;;;;;;;8.47;3.03;;;;;;;;;;5033867;28;20168;-61
2023/01/13 04:29:24;;;;;;;3.97;2.60;;;;;;;;;;5033480;28;20067;-62
2023/01/13 04:31:50;;;;;;;6.70;2.77;;;;;;;;;;5028618;28;20029;-62
2023/01/13 04:34:17;;;;;;;4.33;3.10;;;;;;;;;;5028705;28;20422;-62
2023/01/13 04:36:44;;;;;;;5.83;3.83;;;;;;;;;;5028734;28;20044;-61
2023/01/13 04:39:10;;;;;;;8.27;3.70;;;;;;;;;;5029415;28;20031;-63
2023/01/13 04:44:22;;;;;;;;;;;;;;;;;;5034511;28;20450;-62
2023/01/13 04:46:49;;;;;;;5.60;2.87;;;;;;;;;;5034138;28;19936;-62
2023/01/13 04:49:15;;;;;;;3.83;3.20;;;;;;;;;;5033617;28;20471;-63
2023/01/13 04:51:42;;;;;;;4.30;3.00;;;;;;;;;;5032120;28;20430;-62
2023/01/13 04:54:12;;;;;;;3.40;2.60;;;;;;;;;;5036373;28;20112;-62
2023/01/13 04:56:39;;;;;;;3.53;2.53;;;;;;;;;;5047760;28;20033;-62
2023/01/13 04:59:05;;;;;;;5.57;3.20;;;;;;;;;;5047543;28;20428;-62
2023/01/13 05:01:32;;;;;;;5.10;2.87;;;;;;;;;;5036789;28;20060;-62
2023/01/13 05:03:59;;;;;;;3.27;2.10;;;;;;;;;;5033797;28;20105;-61
2023/01/13 05:06:25;;;;;;;5.03;3.03;;;;;;;;;;5033377;28;20482;-61
2023/01/13 05:08:52;;;;;;;3.83;2.97;;;;;;;;;;5033590;28;20021;-61
2023/01/13 05:17:00;;;;;;;4.43;3.63;;;;;;;;;;5047585;28;20533;-62
2023/01/13 05:19:31;;;;;;;3.57;2.53;;;;;;;;;;5045622;28;20032;-62
2023/01/13 05:27:28;;;;;;;5.05;3.10;;;;;;;;;;5052697;28;20103;-61
2023/01/13 05:29:54;;;;;;;5.93;4.13;;;;;;;;;;5044920;28;20014;-60
2023/01/13 05:32:21;;;;;;;4.90;3.20;;;;;;;;;;5041751;28;20024;-61
2023/01/13 05:34:48;;;;;;;6.67;4.03;;;;;;;;;;5063335;28;20044;-60
2023/01/13 05:37:15;;;;;;;4.10;3.33;;;;;;;;;;5056861;28;20091;-62
2023/01/13 05:45:12;;;;;;;7.00;3.83;;;;;;;;;;5047497;28;20170;-60
2023/01/13 05:47:39;;;;;;;3.93;3.53;;;;;;;;;;5051875;28;20025;-60
2023/01/13 05:50:06;;;;;;;4.17;3.30;;;;;;;;;;5050927;28;20099;-61
2023/01/13 05:52:33;;;;;;;5.10;3.50;;;;;;;;;;5036920;28;20026;-61
2023/01/13 05:54:59;;;;;;;5.70;4.30;;;;;;;;;;5032748;28;20038;-61
2023/01/13 05:57:26;;;;;;;9.07;5.97;;;;;;;;;;5032459;28;20475;-61
2023/01/13 05:59:53;;;;;;;8.20;4.37;;;;;;;;;;5027969;28;20434;-61
2023/01/13 06:02:19;;;;;;;8.37;6.00;;;;;;;;;;5040132;28;20025;-61
2023/01/13 06:04:46;;;;;;;8.93;5.83;;;;;;;;;;5047163;28;20079;-61
2023/01/13 06:07:13;;;;;;;7.93;5.77;;;;;;;;;;5046993;28;20043;-61
2023/01/13 06:09:39;;;;;;;11.33;5.93;;;;;;;;;;5050617;28;20025;-61
2023/01/13 06:12:06;;;;;;;8.17;5.00;;;;;;;;;;5040721;28;20039;-61
2023/01/13 06:14:39;;;;;;;6.87;4.93;;;;;;;;;;5032366;28;20060;-61
2023/01/13 06:17:09;;;;;;;6.90;5.13;;;;;;;;;;5032362;28;20046;-61
2023/01/13 06:19:36;;;;;;;5.90;4.87;;;;;;;;;;5032284;28;20040;-61
2023/01/13 06:22:26;;;;;;;7.83;4.93;;;;;;;;;;5037979;28;20491;-61
2023/01/13 06:24:54;;;;;;;8.37;5.30;;;;;;;;;;5041413;28;20522;-61
2023/01/13 06:27:21;;;;;;;5.17;3.67;;;;;;;;;;5046776;28;20471;-61
2023/01/13 06:29:48;;;;;;;5.73;4.23;;;;;;;;;;5046728;28;20033;-60
2023/01/13 06:32:24;;;;;;;4.50;3.63;;;;;;;;;;5038948;28;20025;-61
2023/01/13 06:34:53;;;;;;;4.90;3.60;;;;;;;;;;5031931;28;20049;-61
2023/01/13 06:37:24;;;;;;;4.67;3.10;;;;;;;;;;5032217;28;20037;-60
2023/01/13 06:39:51;;;;;;;4.93;3.40;;;;;;;;;;5032201;28;20106;-61
2023/01/13 06:45:03;;;;;;;3.90;3.13;;;;;;;;;;5046612;28;20044;-60
2023/01/13 06:47:29;;;;;;;4.03;2.80;;;;;;;;;;5046387;28;20075;-61
2023/01/13 06:49:58;;;;;;;3.07;2.50;;;;;;;;;;5046573;28;20025;-61
2023/01/13 06:52:29;;;;;;;4.23;3.27;;;;;;;;;;5033925;28;20036;-61
2023/01/13 06:54:56;;;;;;;3.80;2.77;;;;;;;;;;5031875;28;20452;-61
2023/01/13 06:57:23;;;;;;;4.60;2.83;;;;;;;;;;5031955;28;20033;-61
2023/01/13 06:59:50;;;;;;;5.90;2.33;;;;;;;;;;5031975;28;20051;-60
2023/01/13 07:02:17;;;;;;;3.40;2.33;;;;;;;;;;5042355;28;20387;-63
2023/01/13 07:04:45;;;;;;;2.90;2.10;;;;;;;;;;5051651;28;20035;-61
2023/01/13 07:07:12;;;;;;;3.47;2.33;;;;;;;;;;5046200;28;20029;-60
2023/01/13 07:09:39;;;;;;;2.37;1.70;;;;;;;;;;5046549;28;20032;-61
2023/01/13 07:12:06;;;;;;;1.57;1.37;;;;;;;;;;5037189;28;20353;-60
2023/01/13 07:17:23;;;;;;;1.98;1.48;;;;;;;;;;5031760;28;20044;-61
2023/01/13 07:19:52;;;;;;;1.60;1.30;;;;;;;;;;5031846;28;20018;-61
2023/01/13 07:22:18;;;;;;;2.23;1.53;;;;;;;;;;5042251;28;20115;-61
2023/01/13 07:24:45;;;;;;;2.20;1.63;;;;;;;;;;5055472;28;20446;-61
2023/01/13 07:27:12;;;;;;;2.10;1.60;;;;;;;;;;5055231;28;20025;-61
2023/01/13 07:29:38;;;;;;;1.73;1.40;;;;;;;;;;5049519;28;20110;-61
2023/01/13 07:32:06;;;;;;;3.00;2.00;;;;;;;;;;5041593;28;20037;-62
2023/01/13 07:34:33;;;;;;;2.40;1.53;;;;;;;;;;5029939;28;20128;-61
2023/01/13 07:37:00;;;;;;;3.20;1.40;;;;;;;;;;5029658;28;20108;-61
2023/01/13 07:39:27;;;;;;;3.30;1.90;;;;;;;;;;5034915;28;20467;-60
2023/01/13 07:44:38;;;;;;;1.98;1.63;;;;;;;;;;5055158;28;20039;-61
2023/01/13 07:47:07;;;;;;;3.17;2.13;;;;;;;;;;5055086;28;20040;-61
2023/01/13 07:49:34;;;;;;;2.33;1.60;;;;;;;;;;5054391;28;20017;-61
2023/01/13 07:52:00;;;;;;;2.63;1.70;;;;;;;;;;5042036;28;20040;-61
2023/01/13 07:54:27;;;;;;;1.87;1.57;;;;;;;;;;5029734;28;20049;-60
2023/01/13 07:56:56;;;;;;;2.33;1.33;;;;;;;;;;5029249;28;20474;-61
2023/01/13 07:59:22;;;;;;;2.13;1.63;;;;;;;;;;5029402;28;20021;-61
2023/01/13 08:01:51;;;;;;;4.67;1.87;;;;;;;;;;5054015;28;20021;-60
2023/01/13 08:04:18;;;;;;;1.93;1.40;;;;;;;;;;5054656;28;20025;-61
2023/01/13 08:06:45;;;;;;;2.60;2.07;;;;;;;;;;5054594;28;20079;-61
2023/01/13 08:09:11;;;;;;;2.47;1.63;;;;;;;;;;5054618;28;20025;-61
2023/01/13 08:11:38;;;;;;;2.03;1.70;;;;;;;;;;5037005;28;20021;-61
2023/01/13 08:14:05;;;;;;;4.20;2.13;;;;;;;;;;5028655;28;20032;-60
2023/01/13 08:16:33;;;;;;;2.47;1.77;;;;;;;;;;5045706;28;20033;-61
2023/01/13 08:19:00;;;;;;;2.33;1.57;;;;;;;;;;5049251;28;20036;-60
2023/01/13 08:21:27;;;;;;;2.37;2.00;;;;;;;;;;5048991;28;20383;-61
2023/01/13 08:23:53;;;;;;;2.07;1.67;;;;;;;;;;5054266;28;20017;-61
2023/01/13 08:26:21;;;;;;;3.00;2.17;;;;;;;;;;5039807;28;20483;-60
2023/01/13 08:28:47;;;;;;;3.43;2.17;;;;;;;;;;5034037;28;20040;-61
2023/01/13 08:31:15;;;;;;;3.97;2.30;;;;;;;;;;5034188;28;20026;-60
2023/01/13 08:33:42;;;;;;;2.83;1.47;;;;;;;;;;5044805;28;20331;-61
2023/01/13 08:36:11;;;;;;;3.53;2.10;;;;;;;;;;5048965;28;20036;-60
2023/01/13 08:38:38;;;;;;;3.07;1.80;;;;;;;;;;5048750;28;20506;-61
2023/01/13 08:41:08;;;;;;;2.47;1.97;;;;;;;;;;5048644;28;20494;-60
2023/01/13 08:43:35;;;;;;;2.10;1.53;;;;;;;;;;5039275;28;20030;-61
2023/01/13 08:46:03;;;;;;;2.57;2.07;;;;;;;;;;5033106;28;20067;-61
2023/01/13 08:48:30;;;;;;;2.87;2.33;;;;;;;;;;5042789;28;20039;-60
2023/01/13 08:51:04;;;;;;;2.00;1.70;;;;;;;;;;5053898;28;20037;-61
2023/01/13 08:53:31;;;;;;;2.67;1.88;;;;;;;;;;5053995;28;20128;-60
2023/01/13 08:55:58;;;;;;;3.17;2.43;;;;;;;;;;5053673;28;20044;-61
2023/01/13 08:58:25;;;;;;;2.50;2.07;;;;;;;;;;5040341;28;20083;-61
2023/01/13 09:00:51;;;;;;;2.47;2.17;;;;;;;;;;5028368;28;20037;-61
2023/01/13 09:03:18;;;;;;;2.03;1.80;;;;;;;;;;5028439;28;20032;-60
2023/01/13 09:05:45;;;;;;;6.30;3.77;;;;;;;;;;5028108;28;20064;-60
2023/01/13 09:08:11;;;;;;;2.03;1.60;;;;;;;;;;5037728;28;20021;-60
2023/01/13 09:10:39;;;;;;;3.50;2.57;;;;;;;;;;5053449;28;20075;-60
2023/01/13 09:13:11;;;;;;;2.43;2.10;;;;;;;;;;5053255;28;20491;-61
2023/01/13 09:15:39;;;;;;;7.50;3.70;;;;;;;;;;5050051;28;20051;-61
2023/01/13 09:18:06;;;;;;;5.53;2.80;;;;;;;;;;5033434;28;20025;-61
2023/01/13 09:20:33;;;;;;;3.03;2.40;;;;;;;;;;5028512;28;20037;-60
2023/01/13 09:23:00;;;;;;;2.37;2.07;;;;;;;;;;5027891;28;20020;-61
2023/01/13 09:25:26;;;;;;;3.63;2.33;;;;;;;;;;5027939;28;20021;-60
2023/01/13 09:27:53;;;;;;;3.73;2.77;;;;;;;;;;5047734;28;20029;-61
2023/01/13 09:30:20;;;;;;;3.20;2.60;;;;;;;;;;5051302;28;20530;-60
2023/01/13 09:32:47;;;;;;;5.47;2.40;;;;;;;;;;5036673;28;20060;-61
2023/01/13 09:35:13;;;;;;;1.63;1.53;;;;;;;;;;5034064;28;20053;-60
2023/01/13 09:37:41;;;;;;;2.57;1.90;;;;;;;;;;5033165;28;20033;-60
2023/01/13 09:40:12;;;;;;;3.17;2.03;;;;;;;;;;5032787;28;20047;-60
2023/01/13 09:45:41;;;;;;;3.40;2.73;;;;;;;;;;5046658;28;20060;-60
2023/01/13 09:48:10;;;;;;;3.30;2.60;;;;;;;;;;5047422;28;20017;-60
2023/01/13 09:50:37;;;;;;;2.47;2.17;;;;;;;;;;5047085;28;20025;-60
2023/01/13 09:53:05;;;;;;;3.43;2.37;;;;;;;;;;5034296;28;20112;-61
2023/01/13 09:55:37;;;;;;;4.37;3.27;;;;;;;;;;5032611;28;20352;-61
2023/01/13 09:58:12;;;;;;;5.53;3.27;;;;;;;;;;5032675;28;20026;-60
2023/01/13 10:00:41;;;;;;;2.92;2.50;;;;;;;;;;5032704;28;20025;-61
2023/01/13 10:03:08;;;;;;;3.10;2.63;;;;;;;;;;5049173;28;20090;-60
2023/01/13 10:05:37;;;;;;;5.93;3.33;;;;;;;;;;5045600;28;20037;-61
2023/01/13 10:08:12;;;;;;;4.70;2.77;;;;;;;;;;5027089;28;20021;-60
2023/01/13 10:10:38;;;;;;;;;;;;;;;;;;5027545;28;20530;-60
2023/01/13 10:13:14;;;;;;;4.87;3.03;;;;;;;;;;5026798;28;19905;-60
2023/01/13 10:15:43;;;;;;;4.43;3.13;;;;;;;;;;5032809;28;20030;-60
2023/01/13 10:18:30;;;;;;;3.50;3.07;;;;;;;;;;5052080;28;20414;-61
2023/01/13 10:21:20;;;;;;;5.20;3.37;;;;;;;;;;5045190;28;20044;-60
2023/01/13 10:24:03;;;;;;;6.23;3.13;;;;;;;;;;5032720;28;20037;-60
2023/01/13 10:26:29;;;;;;;5.50;4.23;;;;;;;;;;5046841;28;20029;-61
2023/01/13 10:28:57;;;;;;;3.43;2.87;;;;;;;;;;5046767;28;20159;-60
2023/01/13 10:31:24;;;;;;;7.57;3.53;;;;;;;;;;5046516;28;20092;-60
2023/01/13 10:34:02;;;;;;;2.87;2.37;;;;;;;;;;5046820;28;20028;-61
2023/01/13 10:36:29;;;;;;;3.13;2.67;;;;;;;;;;5045158;28;20094;-60
2023/01/13 10:39:08;;;;;;;4.17;3.23;;;;;;;;;;5032193;28;20828;-61
2023/01/13 10:41:35;;;;;;;9.10;2.60;;;;;;;;;;5032225;28;20084;-61
2023/01/13 10:44:03;;;;;;;3.43;2.90;;;;;;;;;;5032303;28;20036;-60
2023/01/13 10:46:32;;;;;;;4.50;3.43;;;;;;;;;;5035639;28;20422;-61
2023/01/13 10:49:00;;;;;;;5.30;3.90;;;;;;;;;;5048515;28;20049;-61
2023/01/13 10:51:38;;;;;;;4.20;3.30;;;;;;;;;;5046513;28;20037;-60
2023/01/13 10:54:14;;;;;;;4.90;3.13;;;;;;;;;;5046570;28;20060;-60
2023/01/13 10:56:42;;;;;;;3.97;3.27;;;;;;;;;;5041043;28;20044;-60
2023/01/13 10:59:17;;;;;;;4.93;3.13;;;;;;;;;;5033279;28;20021;-61
2023/01/13 11:01:56;;;;;;;6.50;3.83;;;;;;;;;;5036011;28;20025;-60
2023/01/13 11:04:30;;;;;;;4.70;3.23;;;;;;;;;;5035889;28;20017;-61
2023/01/13 11:06:58;;;;;;;5.00;3.75;;;;;;;;;;5042595;28;20475;-60
2023/01/13 11:09:25;;;;;;;5.00;3.80;;;;;;;;;;5055334;28;20029;-60
2023/01/13 11:11:55;;;;;;;4.63;3.47;;;;;;;;;;5051065;28;20043;-60
2023/01/13 11:14:40;;;;;;;6.80;3.43;;;;;;;;;;5050495;28;20060;-60
2023/01/13 11:17:39;;;;;;;5.35;3.33;;;;;;;;;;5041978;28;20387;-60
2023/01/13 11:20:12;;;;;;;3.60;2.53;;;;;;;;;;5018710;28;20439;-60
2023/01/13 11:22:46;;;;;;;3.33;2.67;;;;;;;;;;5035320;28;20029;-61
2023/01/13 11:25:41;;;;;;;2.95;2.55;;;;;;;;;;5035649;28;20025;-60
2023/01/13 11:28:26;;;;;;;4.13;2.90;;;;;;;;;;5029934;28;20084;-61
2023/01/13 11:31:04;;;;;;;3.90;3.08;;;;;;;;;;5035561;28;20050;-61
2023/01/13 11:33:41;;;;;;;7.37;3.60;;;;;;;;;;5032225;28;20029;-61
2023/01/13 11:36:20;;;;;;;4.43;3.07;;;;;;;;;;5029959;28;20450;-60
2023/01/13 11:38:48;;;;;;;5.57;4.67;;;;;;;;;;5029854;28;20468;-60
2023/01/13 11:41:34;;;;;;;6.80;3.77;;;;;;;;;;5029780;28;20020;-61
2023/01/13 11:44:07;;;;;;;5.43;3.28;;;;;;;;;;5034130;28;20026;-61
2023/01/13 11:46:34;;;;;;;5.53;3.27;;;;;;;;;;5035471;28;20375;-60
2023/01/13 11:49:02;;;;;;;5.47;3.43;;;;;;;;;;5035030;28;20022;-61
2023/01/13 11:51:29;;;;;;;3.57;2.57;;;;;;;;;;5034365;28;20030;-61
2023/01/13 11:54:10;;;;;;;2.30;2.03;;;;;;;;;;5049935;28;20151;-61
2023/01/13 11:56:55;;;;;;;3.07;2.67;;;;;;;;;;5049350;28;20029;-61
2023/01/13 11:59:41;;;;;;;5.07;3.83;;;;;;;;;;5049619;28;20017;-61
2023/01/13 12:02:13;;;;;;;3.25;2.88;;;;;;;;;;5049332;28;20423;-61
2023/01/13 12:04:43;;;;;;;5.17;4.00;;;;;;;;;;5044027;28;20025;-61
2023/01/13 12:07:35;;;;;;;3.87;2.80;;;;;;;;;;5034919;28;20258;-60
2023/01/13 12:10:05;;;;;;;4.00;3.23;;;;;;;;;;5034199;28;20273;-61
2023/01/13 12:12:35;;;;;;;4.47;3.37;;;;;;;;;;5034667;28;20026;-60
2023/01/13 12:15:08;;;;;;;2.30;2.00;;;;;;;;;;5034947;28;20039;-60
2023/01/13 12:17:41;;;;;;;4.33;3.33;;;;;;;;;;5045698;28;20285;-61
2023/01/13 12:20:20;;;;;;;5.73;4.20;;;;;;;;;;5049045;28;20278;-61
2023/01/13 12:22:49;;;;;;;3.53;3.07;;;;;;;;;;5048878;28;20659;-61
2023/01/13 12:25:30;;;;;;;6.23;4.37;;;;;;;;;;5049088;28;20666;-60
2023/01/13 12:28:20;;;;;;;6.67;4.07;;;;;;;;;;5034248;28;20745;-61
2023/01/13 12:30:51;;;;;;;5.30;3.60;;;;;;;;;;5026710;28;20788;-61
2023/01/13 12:33:33;;;;;;;2.67;2.30;;;;;;;;;;5034439;28;20254;-61
2023/01/13 12:36:09;;;;;;;8.90;3.77;;;;;;;;;;5034256;28;20672;-60
2023/01/13 12:38:37;;;;;;;3.97;2.77;;;;;;;;;;5042162;28;20266;-60
2023/01/13 12:41:23;;;;;;;3.70;3.20;;;;;;;;;;5048694;28;20266;-60
2023/01/13 12:46:44;;;;;;;5.00;2.63;;;;;;;;;;5048815;28;20558;-60
2023/01/13 12:49:37;;;;;;;2.57;2.20;;;;;;;;;;5049346;28;20074;-60
2023/01/13 12:52:09;;;;;;;5.97;3.20;;;;;;;;;;5033477;28;20282;-60
2023/01/13 12:54:42;;;;;;;4.00;3.00;;;;;;;;;;5033847;28;20294;-60
2023/01/13 12:57:14;;;;;;;11.07;4.53;;;;;;;;;;5033827;28;20283;-60
2023/01/13 12:59:47;;;;;;;4.97;3.63;;;;;;;;;;5033602;28;20265;-61
2023/01/13 13:02:14;;;;;;;3.93;3.20;;;;;;;;;;5030965;28;20270;-61
2023/01/13 13:04:42;;;;;;;3.83;2.90;;;;;;;;;;5028328;28;20757;-60
2023/01/13 13:07:10;;;;;;;5.10;3.30;;;;;;;;;;5028007;28;20255;-61
2023/01/13 13:09:49;;;;;;;4.40;3.63;;;;;;;;;;5028392;28;20255;-60
2023/01/13 13:15:23;;;;;;;5.10;3.33;;;;;;;;;;5031833;28;20309;-61
2023/01/13 13:18:01;;;;;;;3.47;2.83;;;;;;;;;;5033351;28;20336;-61
2023/01/13 13:20:49;;;;;;;5.43;4.10;;;;;;;;;;5032385;28;20263;-61
2023/01/13 13:23:52;;;;;;;4.37;3.40;;;;;;;;;;5034512;28;20259;-61
2023/01/13 13:26:23;;;;;;;7.10;4.13;;;;;;;;;;5045831;28;20869;-61
2023/01/13 13:29:02;;;;;;;2.93;2.57;;;;;;;;;;5027899;28;20628;-61
2023/01/13 13:31:32;;;;;;;5.80;3.10;;;;;;;;;;5038662;28;20268;-61
2023/01/13 13:34:08;;;;;;;4.80;3.40;;;;;;;;;;5049546;28;20759;-61
2023/01/13 13:36:53;;;;;;;5.37;3.57;;;;;;;;;;5049537;28;20365;-61
2023/01/13 13:48:19;;;;;;;3.57;2.47;;;;;;;;;;5005159;28;20263;-61
2023/01/13 13:50:56;;;;;;;10.20;3.50;;;;;;;;;;5034151;28;20297;-62
2023/01/13 13:53:25;;;;;;;3.77;2.37;;;;;;;;;;5026763;28;20336;-60
2023/01/13 13:55:54;;;;;;;5.90;3.23;;;;;;;;;;5026517;28;20295;-61
2023/01/13 13:58:21;;;;;;;4.33;2.73;;;;;;;;;;5032270;28;20255;-61
2023/01/13 14:00:49;;;;;;;4.60;3.27;;;;;;;;;;5032785;28;20028;-61
2023/01/13 14:03:26;;;;;;;6.10;3.87;;;;;;;;;;5032120;28;20271;-60
2023/01/13 14:05:54;;;;;;;5.03;3.83;;;;;;;;;;5032570;28;20029;-61
2023/01/13 14:08:21;;;;;;;5.40;3.23;;;;;;;;;;5030847;28;20037;-61
2023/01/13 14:10:47;;;;;;;4.27;3.53;;;;;;;;;;5028657;28;20104;-61
2023/01/13 14:13:16;;;;;;;3.83;2.90;;;;;;;;;;5046712;28;20056;-62
2023/01/13 14:15:43;;;;;;;2.80;2.30;;;;;;;;;;5044285;28;20044;-63
2023/01/13 14:18:17;;;;;;;4.37;2.83;;;;;;;;;;5032120;28;20531;-61
2023/01/13 14:20:51;;;;;;;3.03;2.42;;;;;;;;;;5051610;28;20037;-61
2023/01/13 14:23:19;;;;;;;4.65;2.75;;;;;;;;;;5052364;28;20078;-61
2023/01/13 14:25:49;;;;;;;4.50;3.47;;;;;;;;;;5052318;28;20052;-61
2023/01/13 14:28:31;;;;;;;4.80;2.77;;;;;;;;;;5050432;28;20029;-61
2023/01/13 14:30:58;;;;;;;2.77;2.00;;;;;;;;;;5044570;28;20026;-61
2023/01/13 14:33:33;;;;;;;3.33;2.57;;;;;;;;;;5026681;28;20102;-62
2023/01/13 14:35:59;;;;;;;;;;;;;;;;;;5026821;28;20084;-62
2023/01/13 14:38:25;;;;;;;4.77;2.87;;;;;;;;;;5026764;28;20263;-61
2023/01/13 14:40:52;;;;;;;4.87;2.87;;;;;;;;;;5031004;28;20032;-61
2023/01/13 14:43:22;;;;;;;3.83;1.50;;;;;;;;;;5051991;28;20045;-61
2023/01/13 14:45:59;;;;;;;2.93;2.00;;;;;;;;;;5051938;28;20028;-61
2023/01/13 14:48:36;;;;;;;5.00;2.47;;;;;;;;;;5051989;28;20522;-62
2023/01/13 14:51:04;;;;;;;2.40;2.17;;;;;;;;;;5051956;28;20099;-61
2023/01/13 14:53:44;;;;;;;3.43;2.40;;;;;;;;;;5039440;28;20033;-61
2023/01/13 14:56:29;;;;;;;4.10;2.50;;;;;;;;;;5026452;28;20187;-62
2023/01/13 14:58:55;;;;;;;3.05;2.22;;;;;;;;;;5035292;28;20048;-61
2023/01/13 15:01:28;;;;;;;6.33;2.87;;;;;;;;;;5046481;28;20495;-62
2023/01/13 15:04:15;;;;;;;5.27;3.13;;;;;;;;;;5050312;28;20036;-61
2023/01/13 15:06:45;;;;;;;3.53;1.70;;;;;;;;;;5051778;28;20021;-61
2023/01/13 15:09:12;;;;;;;3.83;2.20;;;;;;;;;;5041187;28;20026;-61
2023/01/13 15:11:39;;;;;;;2.87;1.97;;;;;;;;;;5031895;28;20030;-61
2023/01/13 15:14:10;;;;;;;2.50;2.00;;;;;;;;;;5031731;28;20069;-62
2023/01/13 15:16:36;;;;;;;9.13;5.27;;;;;;;;;;5026231;28;20484;-61
2023/01/13 15:19:03;;;;;;;2.67;2.17;;;;;;;;;;5026356;28;20047;-62
2023/01/13 15:21:30;;;;;;;3.10;1.93;;;;;;;;;;5037243;28;20112;-61
2023/01/13 15:23:57;;;;;;;3.63;2.77;;;;;;;;;;5045949;28;20032;-62
2023/01/13 15:26:25;;;;;;;7.33;2.30;;;;;;;;;;5051032;28;20021;-61
2023/01/13 15:28:53;;;;;;;6.80;2.03;;;;;;;;;;5051241;28;20032;-62
2023/01/13 15:31:20;;;;;;;3.67;1.47;;;;;;;;;;5051532;28;20025;-62
2023/01/13 15:33:47;;;;;;;2.47;1.90;;;;;;;;;;5049466;28;20028;-61
2023/01/13 15:36:21;;;;;;;2.73;1.87;;;;;;;;;;5050900;28;20086;-61
2023/01/13 15:38:48;;;;;;;2.85;1.75;;;;;;;;;;5045846;28;20040;-62
2023/01/13 15:41:15;;;;;;;3.53;2.30;;;;;;;;;;5045775;28;20025;-61
2023/01/13 15:46:38;;;;;;;2.28;1.58;;;;;;;;;;5049485;28;20043;-61
2023/01/13 15:49:11;;;;;;;8.37;1.70;;;;;;;;;;5055275;28;20024;-62
2023/01/13 15:51:39;;;;;;;8.87;1.97;;;;;;;;;;5054983;28;20021;-62
2023/01/13 15:54:06;;;;;;;3.03;1.80;;;;;;;;;;5054792;28;20044;-61
2023/01/13 15:56:35;;;;;;;1.57;1.07;;;;;;;;;;5035928;28;20037;-61
2023/01/13 15:59:02;;;;;;;2.43;1.60;;;;;;;;;;5050273;28;20025;-61
2023/01/13 16:01:28;;;;;;;2.53;1.13;;;;;;;;;;5049288;28;20025;-61
2023/01/13 16:03:55;;;;;;;3.40;2.20;;;;;;;;;;5049267;28;20102;-61
2023/01/13 16:06:26;;;;;;;5.23;0.90;;;;;;;;;;5048858;28;20025;-61
2023/01/13 16:08:53;;;;;;;1.13;0.87;;;;;;;;;;5047587;28;20033;-61
2023/01/13 16:11:20;;;;;;;1.13;0.93;;;;;;;;;;5054463;28;20021;-62
2023/01/13 16:13:46;;;;;;;1.60;1.13;;;;;;;;;;5054711;28;20017;-62
2023/01/13 16:16:21;;;;;;;2.30;0.77;;;;;;;;;;5054369;28;20054;-62
2023/01/13 16:18:48;;;;;;;0.68;0.60;;;;;;;;;;5041412;28;20032;-62
2023/01/13 16:21:15;;;;;;;0.97;0.83;;;;;;;;;;5049311;28;20055;-62
2023/01/13 16:23:42;;;;;;;1.40;0.83;;;;;;;;;;5048761;28;20040;-61
2023/01/13 16:26:20;;;;;;;1.03;0.60;;;;;;;;;;5048736;28;20020;-62
2023/01/13 16:28:47;;;;;;;1.87;0.60;;;;;;;;;;5048646;28;20490;-62
2023/01/13 16:31:20;;;;;;;0.90;0.63;;;;;;;;;;5046807;28;20075;-61
2023/01/13 16:33:47;;;;;;;0.90;0.70;;;;;;;;;;5054194;28;20478;-61
2023/01/13 16:36:15;;;;;;;0.97;0.80;;;;;;;;;;5054167;28;20488;-62
2023/01/13 16:38:42;;;;;;;1.40;1.10;;;;;;;;;;5054287;28;20013;-62
2023/01/13 16:41:09;;;;;;;2.40;1.40;;;;;;;;;;5052264;28;20055;-62